createdAt,value
2023-01-18T00:01:12.047Z,-4.72
2023-01-18T00:03:40.453Z,-4.74
2023-01-18T00:06:10.161Z,-4.81
2023-01-18T00:08:38.686Z,-4.72
2023-01-18T00:11:07.977Z,-4.67
2023-01-18T00:13:35.887Z,-4.67
2023-01-18T00:16:04.720Z,-4.79
2023-01-18T00:18:35.901Z,-4.50
2023-01-18T00:21:03.949Z,-4.74
2023-01-18T00:23:31.566Z,-4.85
2023-01-18T00:26:02.091Z,-4.71
2023-01-18T00:28:29.774Z,-4.75
2023-01-18T00:30:57.393Z,-4.77
2023-01-18T00:33:24.918Z,-4.87
2023-01-18T00:36:00.803Z,-4.89
2023-01-18T00:38:28.933Z,-4.88
2023-01-18T00:40:56.710Z,-4.82
2023-01-18T00:43:38.763Z,-4.92
2023-01-18T00:46:06.738Z,-4.58
2023-01-18T00:48:34.444Z,-4.70
2023-01-18T00:51:03.713Z,-4.70
2023-01-18T00:53:31.647Z,-4.82
2023-01-18T00:55:59.398Z,-4.86
2023-01-18T00:58:28.298Z,-4.77
2023-01-18T01:00:55.798Z,-4.94
2023-01-18T01:03:23.335Z,-4.92
2023-01-18T01:06:08.441Z,-4.93
2023-01-18T01:08:37.311Z,-4.95
2023-01-18T01:11:06.687Z,-4.72
2023-01-18T01:13:54.599Z,-4.83
2023-01-18T01:16:39.911Z,-5.01
2023-01-18T01:19:25.673Z,-5.05
2023-01-18T01:22:11.067Z,-4.98
2023-01-18T01:24:57.898Z,-5.00
2023-01-18T01:27:25.358Z,-4.97
2023-01-18T01:29:54.285Z,-4.97
2023-01-18T01:32:21.734Z,-5.00
2023-01-18T01:34:49.172Z,-4.91
2023-01-18T01:37:16.645Z,-5.00
2023-01-18T01:39:45.456Z,-4.93
2023-01-18T01:42:12.999Z,-4.66
2023-01-18T01:44:46.895Z,-4.63
2023-01-18T01:47:24.889Z,-4.83
2023-01-18T01:49:55.047Z,-4.77
2023-01-18T01:52:24.775Z,-4.55
2023-01-18T01:54:55.853Z,-4.58
2023-01-18T01:57:26.191Z,-4.61
2023-01-18T01:59:58.432Z,-4.69
2023-01-18T02:02:26.214Z,-4.92
2023-01-18T02:04:55.515Z,-4.93
2023-01-18T02:07:23.938Z,-4.88
2023-01-18T02:09:54.107Z,-4.64
2023-01-18T02:12:21.594Z,-4.64
2023-01-18T02:14:49.060Z,-4.69
2023-01-18T02:17:28.262Z,-4.82
2023-01-18T02:20:27.785Z,-4.76
2023-01-18T02:23:16.222Z,-4.75
2023-01-18T02:26:03.610Z,-4.95
2023-01-18T02:28:34.228Z,-4.95
2023-01-18T02:31:08.131Z,-4.98
2023-01-18T02:33:41.193Z,-5.01
2023-01-18T02:36:08.958Z,-4.96
2023-01-18T02:38:40.007Z,-4.99
2023-01-18T02:41:12.818Z,-4.90
2023-01-18T02:44:00.435Z,-4.87
2023-01-18T02:46:33.898Z,-4.92
2023-01-18T02:49:08.598Z,-4.96
2023-01-18T02:51:36.529Z,-4.92
2023-01-18T02:54:04.817Z,-4.84
2023-01-18T02:56:36.223Z,-4.74
2023-01-18T02:59:10.141Z,-4.76
2023-01-18T03:01:40.733Z,-4.74
2023-01-18T03:04:11.998Z,-4.78
2023-01-18T03:06:41.592Z,-4.78
2023-01-18T03:09:09.578Z,-4.75
2023-01-18T03:11:41.893Z,-4.78
2023-01-18T03:14:19.028Z,-4.78
2023-01-18T03:16:58.751Z,-4.76
2023-01-18T03:19:58.907Z,-4.75
2023-01-18T03:22:41.945Z,-4.75
2023-01-18T03:25:11.234Z,-4.78
2023-01-18T03:27:56.811Z,-4.71
2023-01-18T03:30:43.425Z,-4.78
2023-01-18T03:33:29.427Z,-4.77
2023-01-18T03:35:58.206Z,-4.73
2023-01-18T03:38:25.865Z,-4.73
2023-01-18T03:40:53.426Z,-4.72
2023-01-18T03:43:23.276Z,-4.77
2023-01-18T03:45:53.953Z,-4.72
2023-01-18T03:48:21.515Z,-4.71
2023-01-18T03:50:51.440Z,-4.64
2023-01-18T03:53:24.147Z,-4.69
2023-01-18T03:55:55.363Z,-4.64
2023-01-18T03:58:26.944Z,-4.62
2023-01-18T04:00:55.889Z,-4.60
2023-01-18T04:03:23.367Z,-4.82
2023-01-18T04:05:51.199Z,-4.77
2023-01-18T04:08:21.896Z,-4.82
2023-01-18T04:10:49.394Z,-4.76
2023-01-18T04:13:16.824Z,-4.69
2023-01-18T04:15:44.349Z,-4.69
2023-01-18T04:18:13.237Z,-4.74
2023-01-18T04:20:40.713Z,-4.75
2023-01-18T04:23:08.263Z,-4.80
2023-01-18T04:25:35.747Z,-4.76
2023-01-18T04:28:03.229Z,-4.80
2023-01-18T04:30:30.872Z,-4.88
2023-01-18T04:32:58.625Z,-4.78
2023-01-18T04:35:27.582Z,-4.82
2023-01-18T04:37:55.042Z,-4.86
2023-01-18T04:40:22.730Z,-4.68
2023-01-18T04:42:54.091Z,-4.76
2023-01-18T04:45:21.843Z,-4.74
2023-01-18T04:47:49.457Z,-4.73
2023-01-18T04:50:17.385Z,-4.67
2023-01-18T04:52:48.136Z,-4.66
2023-01-18T04:55:15.637Z,-4.71
2023-01-18T04:57:43.327Z,-4.79
2023-01-18T05:00:14.429Z,-4.77
2023-01-18T05:02:42.093Z,-4.77
2023-01-18T05:05:10.285Z,-4.73
2023-01-18T05:07:37.738Z,-4.71
2023-01-18T05:10:07.516Z,-4.71
2023-01-18T05:12:35.008Z,-4.57
2023-01-18T05:15:02.478Z,-4.46
2023-01-18T05:17:30.476Z,-4.64
2023-01-18T05:19:57.956Z,-4.61
2023-01-18T05:22:25.586Z,-4.56
2023-01-18T05:24:53.675Z,-4.53
2023-01-18T05:27:22.468Z,-4.71
2023-01-18T05:29:50.180Z,-4.85
2023-01-18T05:32:17.680Z,-4.79
2023-01-18T05:34:45.392Z,-4.79
2023-01-18T05:37:13.865Z,-4.83
2023-01-18T05:39:41.336Z,-4.85
2023-01-18T05:42:08.999Z,-4.85
2023-01-18T05:44:37.785Z,-4.82
2023-01-18T05:47:05.339Z,-4.77
2023-01-18T05:49:32.793Z,-4.74
2023-01-18T05:52:00.291Z,-4.77
2023-01-18T05:54:27.749Z,-4.74
2023-01-18T05:56:55.498Z,-4.73
2023-01-18T05:59:23.182Z,-4.77
2023-01-18T06:01:52.014Z,-4.81
2023-01-18T06:04:19.769Z,-4.76
2023-01-18T06:06:47.288Z,-4.76
2023-01-18T06:09:14.845Z,-4.77
2023-01-18T06:11:42.485Z,-4.68
2023-01-18T06:14:09.956Z,-4.73
2023-01-18T06:16:37.453Z,-4.65
2023-01-18T06:19:06.613Z,-4.76
2023-01-18T06:21:34.112Z,-4.79
2023-01-18T06:24:01.589Z,-4.67
2023-01-18T06:26:31.164Z,-4.67
2023-01-18T06:28:58.660Z,-4.74
2023-01-18T06:31:26.175Z,-4.78
2023-01-18T06:33:53.654Z,-4.78
2023-01-18T06:36:22.453Z,-4.77
2023-01-18T06:38:50.210Z,-4.68
2023-01-18T06:41:17.912Z,-4.78
2023-01-18T06:43:45.407Z,-4.78
2023-01-18T06:46:12.938Z,-4.77
2023-01-18T06:48:40.493Z,-4.74
2023-01-18T06:51:08.009Z,-4.72
2023-01-18T06:53:37.961Z,-4.69
2023-01-18T06:56:10.209Z,-4.53
2023-01-18T06:58:38.370Z,-4.28
2023-01-18T07:01:06.214Z,-4.48
2023-01-18T07:03:34.096Z,-4.51
2023-01-18T07:06:02.959Z,-4.40
2023-01-18T07:08:31.828Z,-4.33
2023-01-18T07:11:05.025Z,-4.36
2023-01-18T07:13:32.569Z,-4.58
2023-01-18T07:16:02.017Z,-4.62
2023-01-18T07:18:30.320Z,-4.75
2023-01-18T07:20:59.348Z,-4.72
2023-01-18T07:23:26.830Z,-4.70
2023-01-18T07:26:02.861Z,-4.66
2023-01-18T07:28:31.013Z,-4.64
2023-01-18T07:30:58.566Z,-4.59
2023-01-18T07:33:26.290Z,-4.64
2023-01-18T07:35:54.070Z,-4.68
2023-01-18T07:38:21.805Z,-4.66
2023-01-18T07:40:49.353Z,-4.59
2023-01-18T07:43:18.808Z,-4.57
2023-01-18T07:45:53.599Z,-4.57
2023-01-18T07:48:21.899Z,-4.57
2023-01-18T07:50:54.030Z,-4.57
2023-01-18T07:53:21.909Z,-4.44
2023-01-18T07:55:49.803Z,-4.42
2023-01-18T07:58:19.133Z,-4.46
2023-01-18T08:00:47.569Z,-4.45
2023-01-18T08:03:16.612Z,-4.39
2023-01-18T08:05:44.934Z,-4.36
2023-01-18T08:08:13.348Z,-4.36
2023-01-18T08:10:41.493Z,-4.39
2023-01-18T08:13:10.117Z,-4.34
2023-01-18T08:15:40.025Z,-4.33
2023-01-18T08:18:08.819Z,-4.25
2023-01-18T08:20:36.425Z,-4.22
2023-01-18T08:23:04.792Z,-3.82
2023-01-18T08:25:33.716Z,-3.86
2023-01-18T08:28:02.444Z,-3.90
2023-01-18T08:30:31.474Z,-3.93
2023-01-18T08:33:01.383Z,-3.94
2023-01-18T08:35:31.334Z,-3.93
2023-01-18T08:38:00.149Z,-3.92
2023-01-18T08:40:28.678Z,-3.78
2023-01-18T08:42:57.563Z,-3.79
2023-01-18T08:45:25.707Z,-3.68
2023-01-18T08:47:57.764Z,-3.56
2023-01-18T08:50:26.685Z,-3.60
2023-01-18T08:52:54.334Z,-3.59
2023-01-18T08:55:23.046Z,-3.52
2023-01-18T08:57:50.580Z,-3.47
2023-01-18T09:00:19.227Z,-3.40
2023-01-18T09:02:49.212Z,-3.30
2023-01-18T09:05:16.799Z,-3.24
2023-01-18T09:07:46.121Z,-3.31
2023-01-18T09:10:14.537Z,-3.23
2023-01-18T09:12:42.333Z,-3.09
2023-01-18T09:15:10.534Z,-2.47
2023-01-18T09:17:38.229Z,-2.61
2023-01-18T09:20:09.617Z,-2.77
2023-01-18T09:22:37.570Z,-2.61
2023-01-18T09:25:07.429Z,-2.39
2023-01-18T09:27:35.289Z,-2.55
2023-01-18T09:30:03.709Z,-2.68
2023-01-18T09:32:31.291Z,-2.47
2023-01-18T09:34:59.216Z,-2.36
2023-01-18T09:37:26.987Z,-2.40
2023-01-18T09:39:54.621Z,-2.34
2023-01-18T09:42:25.172Z,-1.86
2023-01-18T09:44:53.788Z,-1.80
2023-01-18T09:47:24.198Z,-1.90
2023-01-18T09:49:56.509Z,-1.67
2023-01-18T09:52:31.259Z,-1.80
2023-01-18T09:55:06.323Z,-1.81
2023-01-18T09:57:44.689Z,-1.75
2023-01-18T10:00:20.448Z,-1.81
2023-01-18T10:02:49.852Z,-1.79
2023-01-18T10:05:21.368Z,-1.72
2023-01-18T10:07:54.992Z,-1.63
2023-01-18T10:10:22.545Z,-1.33
2023-01-18T10:12:56.988Z,-1.40
2023-01-18T10:15:26.674Z,-1.22
2023-01-18T10:17:56.215Z,-1.41
2023-01-18T10:20:29.707Z,-1.51
2023-01-18T10:23:00.295Z,-1.37
2023-01-18T10:25:33.099Z,-1.22
2023-01-18T10:28:16.592Z,-1.08
2023-01-18T10:30:55.734Z,-0.82
2023-01-18T10:33:24.802Z,-0.78
2023-01-18T10:35:56.202Z,-0.69
2023-01-18T10:38:26.451Z,-1.04
2023-01-18T10:40:57.317Z,-0.96
2023-01-18T10:43:27.915Z,-1.10
2023-01-18T10:45:56.048Z,-1.14
2023-01-18T10:48:28.020Z,-1.13
2023-01-18T10:50:57.938Z,-1.11
2023-01-18T10:53:31.802Z,-1.05
2023-01-18T10:56:03.166Z,-0.98
2023-01-18T10:58:35.897Z,-0.92
2023-01-18T11:01:04.571Z,-0.90
2023-01-18T11:03:37.376Z,-0.86
2023-01-18T11:06:07.652Z,-0.83
2023-01-18T11:08:36.825Z,-0.80
2023-01-18T11:11:06.051Z,-0.75
2023-01-18T11:13:42.399Z,-0.69
2023-01-18T11:16:13.617Z,-0.63
2023-01-18T11:18:59.833Z,-0.63
2023-01-18T11:21:31.493Z,-0.65
2023-01-18T11:23:59.452Z,-0.62
2023-01-18T11:26:28.897Z,-0.58
2023-01-18T11:29:00.693Z,-0.47
2023-01-18T11:31:30.222Z,-0.49
2023-01-18T11:33:59.504Z,-0.46
2023-01-18T11:36:38.892Z,-0.38
2023-01-18T11:39:34.031Z,-0.32
2023-01-18T11:42:20.343Z,-0.30
2023-01-18T11:44:54.619Z,-0.31
2023-01-18T11:47:26.253Z,-0.30
2023-01-18T11:50:03.761Z,-0.02
2023-01-18T11:52:42.398Z,-0.13
2023-01-18T11:55:20.593Z,-0.15
2023-01-18T11:57:48.537Z,0.01
2023-01-18T12:00:18.330Z,-0.07
2023-01-18T12:03:05.510Z,-0.02
2023-01-18T12:05:45.623Z,-0.02
2023-01-18T12:08:38.246Z,0.31
2023-01-18T12:11:45.796Z,0.07
2023-01-18T12:14:23.176Z,0.13
2023-01-18T12:17:12.119Z,0.24
2023-01-18T12:19:52.190Z,0.55
2023-01-18T12:22:39.638Z,0.28
2023-01-18T12:25:19.057Z,0.13
2023-01-18T12:27:53.811Z,0.40
2023-01-18T12:30:31.593Z,0.21
2023-01-18T12:33:31.252Z,0.05
2023-01-18T12:36:14.865Z,0.13
2023-01-18T12:38:47.601Z,0.22
2023-01-18T12:41:38.725Z,0.20
2023-01-18T12:44:29.951Z,0.06
2023-01-18T12:47:09.885Z,0.10
2023-01-18T12:49:42.884Z,0.50
2023-01-18T12:52:18.940Z,0.28
2023-01-18T12:54:48.618Z,0.26
2023-01-18T12:57:17.105Z,0.16
2023-01-18T12:59:47.630Z,0.46
2023-01-18T13:02:27.517Z,0.26
2023-01-18T13:04:58.180Z,0.52
2023-01-18T13:07:29.680Z,0.63
2023-01-18T13:09:57.708Z,0.33
2023-01-18T13:12:26.424Z,0.47
2023-01-18T13:15:01.604Z,0.54
2023-01-18T13:17:34.015Z,0.53
2023-01-18T13:20:07.361Z,0.93
2023-01-18T13:22:43.338Z,0.58
2023-01-18T13:25:31.349Z,0.61
2023-01-18T13:28:00.606Z,0.63
2023-01-18T13:30:29.907Z,0.33
2023-01-18T13:32:57.626Z,0.44
2023-01-18T13:35:32.735Z,0.30
2023-01-18T13:38:01.373Z,0.34
2023-01-18T13:40:36.503Z,0.37
2023-01-18T13:43:05.634Z,0.31
2023-01-18T13:45:33.871Z,0.53
2023-01-18T13:48:04.883Z,0.21
2023-01-18T13:50:47.594Z,0.42
2023-01-18T13:53:31.449Z,0.25
2023-01-18T13:56:28.059Z,0.37
2023-01-18T13:59:00.336Z,0.11
2023-01-18T14:01:33.368Z,0.27
2023-01-18T14:04:08.700Z,0.32
2023-01-18T14:06:43.427Z,0.53
2023-01-18T14:09:14.548Z,0.28
2023-01-18T14:11:45.835Z,0.58
2023-01-18T14:14:29.725Z,0.09
2023-01-18T14:17:00.287Z,0.15
2023-01-18T14:19:29.214Z,0.01
2023-01-18T14:22:14.966Z,0.17
2023-01-18T14:24:51.355Z,0.65
2023-01-18T14:27:21.494Z,0.44
2023-01-18T14:29:52.380Z,0.92
2023-01-18T14:32:23.126Z,0.18
2023-01-18T14:34:58.959Z,0.71
2023-01-18T14:37:29.746Z,0.44
2023-01-18T14:40:05.459Z,0.24
2023-01-18T14:42:34.970Z,0.69
2023-01-18T14:45:03.195Z,0.52
2023-01-18T14:47:33.060Z,0.47
2023-01-18T14:50:03.135Z,0.59
2023-01-18T14:52:33.336Z,0.07
2023-01-18T14:55:01.024Z,-0.29
2023-01-18T14:57:28.526Z,0.21
2023-01-18T14:59:57.742Z,0.06
2023-01-18T15:02:29.190Z,0.34
2023-01-18T15:05:11.172Z,-0.03
2023-01-18T15:07:41.577Z,-0.24
2023-01-18T15:10:10.052Z,0.18
2023-01-18T15:12:39.603Z,-0.88
2023-01-18T15:15:09.710Z,-0.90
2023-01-18T15:17:37.818Z,-1.09
2023-01-18T15:20:09.109Z,-0.14
2023-01-18T15:22:40.484Z,-0.99
2023-01-18T15:25:16.212Z,-1.15
2023-01-18T15:27:49.643Z,-1.35
2023-01-18T15:30:18.055Z,-1.04
2023-01-18T15:32:45.712Z,-0.88
2023-01-18T15:35:14.489Z,-1.39
2023-01-18T15:37:43.508Z,-1.56
2023-01-18T15:40:26.137Z,-0.82
2023-01-18T15:42:59.023Z,-1.43
2023-01-18T15:45:29.113Z,-1.72
2023-01-18T15:47:58.542Z,-1.30
2023-01-18T15:50:30.907Z,-0.68
2023-01-18T15:53:06.889Z,-1.12
2023-01-18T15:55:35.968Z,-0.86
2023-01-18T15:58:05.606Z,-0.36
2023-01-18T16:00:37.919Z,-0.26
2023-01-18T16:03:06.195Z,-0.74
2023-01-18T16:05:33.732Z,-1.41
2023-01-18T16:08:18.158Z,-1.86
2023-01-18T16:10:51.907Z,-1.00
2023-01-18T16:13:38.457Z,-0.96
2023-01-18T16:16:14.388Z,-0.48
2023-01-18T16:18:43.817Z,-0.69
2023-01-18T16:21:14.423Z,-0.47
2023-01-18T16:23:49.058Z,-0.52
2023-01-18T16:26:19.648Z,-0.53
2023-01-18T16:28:47.128Z,-0.94
2023-01-18T16:31:14.665Z,-1.33
2023-01-18T16:33:42.216Z,-0.79
2023-01-18T16:36:17.831Z,-1.43
2023-01-18T16:38:46.829Z,-1.20
2023-01-18T16:41:16.923Z,-0.79
2023-01-18T16:43:44.973Z,-0.56
2023-01-18T16:46:12.893Z,-1.14
2023-01-18T16:48:40.532Z,-1.01
2023-01-18T16:51:15.557Z,-0.72
2023-01-18T16:53:43.065Z,-0.64
2023-01-18T16:56:15.461Z,-0.70
2023-01-18T16:58:43.679Z,-0.73
2023-01-18T17:01:14.132Z,-0.58
2023-01-18T17:03:41.899Z,-0.48
2023-01-18T17:06:15.693Z,-0.50
2023-01-18T17:08:43.184Z,-0.76
2023-01-18T17:11:13.081Z,-0.70
2023-01-18T17:13:40.641Z,-0.64
2023-01-18T17:16:13.174Z,-0.54
2023-01-18T17:18:40.699Z,-0.40
2023-01-18T17:21:10.970Z,-0.44
2023-01-18T17:23:39.816Z,-0.57
2023-01-18T17:26:07.675Z,-0.88
2023-01-18T17:28:36.518Z,-0.59
2023-01-18T17:31:04.064Z,-0.88
2023-01-18T17:33:32.560Z,-1.28
2023-01-18T17:36:00.119Z,-1.67
2023-01-18T17:40:58.586Z,-1.14
2023-01-18T17:43:33.703Z,-0.88
2023-01-18T17:46:05.274Z,-0.96
2023-01-18T17:48:32.934Z,-0.87
2023-01-18T17:51:00.689Z,-0.90
2023-01-18T17:53:28.306Z,-0.99
2023-01-18T17:55:56.068Z,-1.01
2023-01-18T17:58:23.531Z,-0.91
2023-01-18T18:00:51.119Z,-1.02
2023-01-18T18:03:20.620Z,-1.12
2023-01-18T18:05:48.211Z,-1.26
2023-01-18T18:08:18.195Z,-1.58
2023-01-18T18:10:45.709Z,-1.51
2023-01-18T18:13:13.329Z,-1.59
2023-01-18T18:15:46.078Z,-1.36
2023-01-18T18:18:22.652Z,-1.78
2023-01-18T18:20:57.556Z,-1.45
2023-01-18T18:23:25.236Z,-2.06
2023-01-18T18:25:52.728Z,-1.71
2023-01-18T18:28:20.208Z,-1.68
2023-01-18T18:30:48.021Z,-2.01
2023-01-18T18:33:15.993Z,-2.09
2023-01-18T18:35:43.651Z,-1.83
2023-01-18T18:38:13.591Z,-1.80
2023-01-18T18:40:41.095Z,-1.81
2023-01-18T18:43:09.216Z,-1.78
2023-01-18T18:45:36.835Z,-1.63
2023-01-18T18:48:04.464Z,-2.04
2023-01-18T18:50:32.213Z,-2.44
2023-01-18T18:53:00.257Z,-1.96
2023-01-18T18:55:29.631Z,-1.90
2023-01-18T18:57:57.617Z,-2.10
2023-01-18T19:00:25.534Z,-2.33
2023-01-18T19:02:53.111Z,-1.96
2023-01-18T19:05:20.829Z,-2.09
2023-01-18T19:07:51.128Z,-2.72
2023-01-18T19:10:19.684Z,-2.32
2023-01-18T19:12:48.619Z,-2.64
2023-01-18T19:15:16.707Z,-2.27
2023-01-18T19:17:44.204Z,-2.28
2023-01-18T19:20:13.875Z,-2.63
2023-01-18T19:22:41.468Z,-2.64
2023-01-18T19:25:09.971Z,-2.65
2023-01-18T19:27:37.470Z,-2.63
2023-01-18T19:30:12.702Z,-2.46
2023-01-18T19:32:40.521Z,-2.69
2023-01-18T19:35:08.765Z,-3.10
2023-01-18T19:37:36.292Z,-3.35
2023-01-18T19:40:03.811Z,-3.35
2023-01-18T19:42:31.296Z,-3.22
2023-01-18T19:44:59.365Z,-3.13
2023-01-18T19:47:28.302Z,-3.46
2023-01-18T19:49:57.266Z,-3.18
2023-01-18T19:52:24.831Z,-2.89
2023-01-18T19:54:52.502Z,-2.82
2023-01-18T19:57:19.996Z,-2.90
2023-01-18T19:59:47.499Z,-2.87
2023-01-18T20:02:15.378Z,-2.54
2023-01-18T20:04:44.244Z,-2.47
2023-01-18T20:07:12.875Z,-2.74
2023-01-18T20:09:43.319Z,-2.81
2023-01-18T20:12:12.499Z,-3.02
2023-01-18T20:14:41.875Z,-3.01
2023-01-18T20:17:10.195Z,-3.22
2023-01-18T20:19:37.709Z,-3.34
2023-01-18T20:22:06.699Z,-3.75
2023-01-18T20:24:34.220Z,-3.68
2023-01-18T20:27:15.421Z,-3.34
2023-01-18T20:29:43.961Z,-3.01
2023-01-18T20:32:17.030Z,-3.10
2023-01-18T20:34:46.482Z,-3.28
2023-01-18T20:37:16.366Z,-3.14
2023-01-18T20:39:44.105Z,-3.29
2023-01-18T20:42:11.573Z,-3.75
2023-01-18T20:44:39.040Z,-3.95
2023-01-18T20:47:06.529Z,-3.84
2023-01-18T20:49:38.263Z,-3.78
2023-01-18T20:52:06.912Z,-3.61
2023-01-18T20:54:36.784Z,-3.20
2023-01-18T20:57:04.634Z,-3.12
2023-01-18T20:59:32.185Z,-2.84
2023-01-18T21:02:00.082Z,-2.73
2023-01-18T21:04:27.807Z,-2.25
2023-01-18T21:06:57.263Z,-2.56
2023-01-18T21:09:24.827Z,-2.26
2023-01-18T21:11:53.653Z,-2.35
2023-01-18T21:14:21.182Z,-2.51
2023-01-18T21:16:48.755Z,-2.64
2023-01-18T21:19:16.241Z,-2.79
2023-01-18T21:21:44.624Z,-2.84
2023-01-18T21:24:12.116Z,-3.14
2023-01-18T21:26:39.716Z,-3.23
2023-01-18T21:29:08.560Z,-3.25
2023-01-18T21:31:36.101Z,-3.23
2023-01-18T21:34:03.692Z,-3.65
2023-01-18T21:36:31.217Z,-3.52
2023-01-18T21:38:58.694Z,-3.94
2023-01-18T21:41:43.994Z,-3.91
2023-01-18T21:44:39.432Z,-4.03
2023-01-18T21:47:06.912Z,-4.18
2023-01-18T21:50:15.922Z,-3.93
2023-01-18T21:52:57.440Z,-4.12
2023-01-18T21:55:24.908Z,-4.18
2023-01-18T21:58:06.412Z,-4.26
2023-01-18T22:00:37.373Z,-4.28
2023-01-18T22:03:05.247Z,-4.22
2023-01-18T22:05:33.807Z,-3.94
2023-01-18T22:08:01.730Z,-3.71
2023-01-18T22:10:29.361Z,-3.71
2023-01-18T22:12:56.846Z,-3.55
2023-01-18T22:15:24.515Z,-3.80
2023-01-18T22:17:53.621Z,-3.66
2023-01-18T22:20:21.109Z,-4.10
2023-01-18T22:22:49.508Z,-4.20
2023-01-18T22:25:17.215Z,-4.38
2023-01-18T22:27:44.686Z,-4.52
2023-01-18T22:30:13.402Z,-4.48
2023-01-18T22:32:40.903Z,-4.41
2023-01-18T22:35:10.334Z,-4.47
2023-01-18T22:37:38.087Z,-4.16
2023-01-18T22:40:06.715Z,-4.29
2023-01-18T22:42:35.353Z,-4.15
2023-01-18T22:45:03.105Z,-4.00
2023-01-18T22:47:31.065Z,-4.13
2023-01-18T22:49:59.144Z,-3.79
2023-01-18T22:52:28.178Z,-3.70
2023-01-18T22:54:55.627Z,-3.89
2023-01-18T22:57:23.125Z,-3.97
2023-01-18T22:59:50.572Z,-3.93
2023-01-18T23:02:18.097Z,-3.89
2023-01-18T23:04:45.557Z,-3.80
2023-01-18T23:07:14.175Z,-3.94
2023-01-18T23:09:43.299Z,-3.49
2023-01-18T23:12:11.108Z,-3.15
2023-01-18T23:14:56.299Z,-3.03
2023-01-18T23:17:43.068Z,-2.82
2023-01-18T23:20:13.391Z,-2.97
2023-01-18T23:22:40.872Z,-3.03
2023-01-18T23:25:10.160Z,-3.08
2023-01-18T23:27:37.630Z,-3.15
2023-01-18T23:30:06.324Z,-3.79
2023-01-18T23:32:35.293Z,-3.36
2023-01-18T23:35:02.743Z,-3.84
2023-01-18T23:37:30.598Z,-4.13
2023-01-18T23:40:15.435Z,-4.08
2023-01-18T23:43:02.097Z,-4.33
2023-01-18T23:45:47.405Z,-4.26
2023-01-18T23:48:35.016Z,-4.35
2023-01-18T23:51:20.447Z,-4.02
2023-01-18T23:54:06.333Z,-3.39
2023-01-18T23:56:34.873Z,-3.21
2023-01-18T23:59:04.036Z,-3.20
